Time,TemperatureF,DewpointF,PressureIn,WindDirection,WindDirectionDegrees,WindSpeedMPH,WindSpeedGustMPH,Humidity,HourlyPrecipIn,Conditions,Clouds,dailyrainin,SoftwareType,DateUTC
2013-06-20 00:08:00,59.0,56.0,30.15,NW,313,0.0,0.0,90,0.00,,,0.00,weatherlink.com 1.10,2013-06-20 04:08:00,
2013-06-20 00:23:00,58.4,55.0,30.16,NNW,327,0.0,3.0,89,0.00,,,0.00,weatherlink.com 1.10,2013-06-20 04:23:00,
2013-06-20 00:38:00,57.9,55.0,30.15,NNW,327,0.0,0.0,89,0.00,,,0.00,weatherlink.com 1.10,2013-06-20 04:38:00,
2013-06-20 00:53:00,57.2,54.0,30.17,NNW,327,0.0,0.0,89,0.00,,,0.00,weatherlink.com 1.10,2013-06-20 04:53:00,
2013-06-20 01:08:00,56.5,54.0,30.17,NNW,327,0.0,0.0,91,0.00,,,0.00,weatherlink.com 1.10,2013-06-20 05:08:00,
2013-06-20 01:23:00,55.9,53.0,30.17,NNW,327,0.0,0.0,91,0.00,,,0.00,weatherlink.com 1.10,2013-06-20 05:23:00,
2013-06-20 01:38:00,55.2,53.0,30.17,NNW,327,0.0,0.0,91,0.00,,,0.00,weatherlink.com 1.10,2013-06-20 05:38:00,
2013-06-20 01:53:00,54.6,52.0,30.16,NNW,327,0.0,0.0,91,0.00,,,0.00,weatherlink.com 1.10,2013-06-20 05:53:00,
2013-06-20 02:08:00,54.0,52.0,30.16,NNW,327,0.0,0.0,92,0.00,,,0.00,weatherlink.com 1.10,2013-06-20 06:08:00,
2013-06-20 02:23:00,53.5,51.0,30.17,NNW,327,0.0,0.0,92,0.00,,,0.00,weatherlink.com 1.10,2013-06-20 06:23:00,
2013-06-20 02:38:00,53.1,51.0,30.18,NNW,327,0.0,0.0,92,0.00,,,0.00,weatherlink.com 1.10,2013-06-20 06:38:00,
2013-06-20 02:53:00,52.6,51.0,30.18,NNW,327,0.0,0.0,93,0.00,,,0.00,weatherlink.com 1.10,2013-06-20 06:53:00,
2013-06-20 03:08:00,52.2,50.0,30.18,NNW,327,0.0,0.0,93,0.00,,,0.00,weatherlink.com 1.10,2013-06-20 07:08:00,
2013-06-20 03:23:00,51.9,50.0,30.18,NNW,327,0.0,0.0,93,0.00,,,0.00,weatherlink.com 1.10,2013-06-20 07:23:00,
2013-06-20 03:38:00,51.5,50.0,30.18,NNW,327,0.0,0.0,94,0.00,,,0.00,weatherlink.com 1.10,2013-06-20 07:38:00,
2013-06-20 03:54:00,51.2,50.0,30.18,NNW,327,0.0,0.0,94,0.00,,,0.00,weatherlink.com 1.10,2013-06-20 07:54:00,
2013-06-20 04:09:00,50.8,49.0,30.19,NNW,327,0.0,0.0,94,0.00,,,0.00,weatherlink.com 1.10,2013-06-20 08:09:00,
2013-06-20 04:24:00,50.6,49.0,30.19,NNW,327,0.0,0.0,94,0.00,,,0.00,weatherlink.com 1.10,2013-06-20 08:24:00,
2013-06-20 04:39:00,50.4,49.0,30.19,NNW,327,0.0,0.0,94,0.00,,,0.00,weatherlink.com 1.10,2013-06-20 08:39:00,
2013-06-20 04:54:00,50.1,49.0,30.19,NNW,327,0.0,0.0,95,0.00,,,0.00,weatherlink.com 1.10,2013-06-20 08:54:00,
2013-06-20 05:09:00,49.9,49.0,30.20,NNW,327,0.0,0.0,95,0.00,,,0.00,weatherlink.com 1.10,2013-06-20 09:09:00,
2013-06-20 05:24:00,49.7,48.0,30.20,NNW,327,0.0,0.0,95,0.00,,,0.00,weatherlink.com 1.10,2013-06-20 09:24:00,
2013-06-20 05:39:00,49.5,48.0,30.21,NNW,327,0.0,0.0,95,0.00,,,0.00,weatherlink.com 1.10,2013-06-20 09:39:00,
2013-06-20 05:54:00,49.4,48.0,30.21,NNW,327,0.0,0.0,95,0.00,,,0.00,weatherlink.com 1.10,2013-06-20 09:54:00,
2013-06-20 06:09:00,49.5,48.0,30.22,NNW,327,0.0,0.0,95,0.00,,,0.00,weatherlink.com 1.10,2013-06-20 10:09:00,
2013-06-20 06:24:00,49.6,49.0,30.22,NNW,327,0.0,0.0,96,0.00,,,0.00,weatherlink.com 1.10,2013-06-20 10:24:00,
2013-06-20 06:39:00,50.1,49.0,30.23,NNW,327,0.0,0.0,96,0.00,,,0.00,weatherlink.com 1.10,2013-06-20 10:39:00,
2013-06-20 06:54:00,50.9,50.0,30.23,NNW,335,0.0,0.0,96,0.00,,,0.00,weatherlink.com 1.10,2013-06-20 10:54:00,
2013-06-20 07:09:00,52.1,51.0,30.23,NNW,335,0.0,0.0,97,0.00,,,0.00,weatherlink.com 1.10,2013-06-20 11:09:00,
2013-06-20 07:24:00,53.3,53.0,30.24,NNW,335,0.0,0.0,97,0.00,,,0.00,weatherlink.com 1.10,2013-06-20 11:24:00,
2013-06-20 07:39:00,55.6,55.0,30.24,NNW,335,0.0,0.0,98,0.00,,,0.00,weatherlink.com 1.10,2013-06-20 11:39:00,
2013-06-20 07:54:00,57.7,57.0,30.24,NNW,335,0.0,0.0,98,0.00,,,0.00,weatherlink.com 1.10,2013-06-20 11:54:00,
2013-06-20 08:09:00,58.6,58.0,30.24,NNW,335,0.0,0.0,98,0.00,,,0.00,weatherlink.com 1.10,2013-06-20 12:09:00,
2013-06-20 08:24:00,60.5,59.0,30.24,NNW,335,0.0,1.0,96,0.00,,,0.00,weatherlink.com 1.10,2013-06-20 12:24:00,
2013-06-20 08:39:00,62.9,59.0,30.24,NNW,333,0.0,1.0,86,0.00,,,0.00,weatherlink.com 1.10,2013-06-20 12:39:00,
2013-06-20 08:54:00,64.8,59.0,30.24,NW,317,0.0,1.0,80,0.00,,,0.00,weatherlink.com 1.10,2013-06-20 12:54:00,
2013-06-20 09:09:00,66.3,59.0,30.25,West,274,0.0,1.0,76,0.00,,,0.00,weatherlink.com 1.10,2013-06-20 13:09:00,
2013-06-20 09:25:00,67.7,58.0,30.25,West,273,0.0,4.0,72,0.00,,,0.00,weatherlink.com 1.10,2013-06-20 13:25:00,
2013-06-20 09:40:00,68.4,59.0,30.25,WNW,292,0.0,4.0,72,0.00,,,0.00,weatherlink.com 1.10,2013-06-20 13:40:00,
2013-06-20 09:55:00,68.5,59.0,30.24,South,181,0.0,5.0,71,0.00,,,0.00,weatherlink.com 1.10,2013-06-20 13:55:00,
2013-06-20 10:10:00,70.6,60.0,30.25,East,93,0.0,1.0,69,0.00,,,0.00,weatherlink.com 1.10,2013-06-20 14:10:00,
2013-06-20 10:25:00,71.9,61.0,30.25,SW,217,0.0,4.0,68,0.00,,,0.00,weatherlink.com 1.10,2013-06-20 14:25:00,
2013-06-20 10:40:00,72.8,61.0,30.25,SW,219,0.0,1.0,67,0.00,,,0.00,weatherlink.com 1.10,2013-06-20 14:40:00,
2013-06-20 10:55:00,73.6,63.0,30.25,South,185,0.0,5.0,69,0.00,,,0.00,weatherlink.com 1.10,2013-06-20 14:55:00,
2013-06-20 11:10:00,73.9,62.0,30.25,SE,139,0.0,7.0,66,0.00,,,0.00,weatherlink.com 1.10,2013-06-20 15:10:00,
2013-06-20 11:25:00,74.3,62.0,30.25,NE,43,0.0,6.0,66,0.00,,,0.00,weatherlink.com 1.10,2013-06-20 15:25:00,
2013-06-20 11:42:00,75.5,63.0,30.25,West,268,3.0,6.0,65,0.00,,,0.00,weatherlink.com 1.10,2013-06-20 15:42:00,
2013-06-20 11:57:00,76.1,62.0,30.25,ESE,110,0.0,6.0,62,0.00,,,0.00,weatherlink.com 1.10,2013-06-20 15:57:00,
2013-06-20 12:12:00,75.0,61.0,30.25,SSW,200,0.0,7.0,62,0.00,,,0.00,weatherlink.com 1.10,2013-06-20 16:12:00,
2013-06-20 12:27:00,73.7,61.0,30.25,WSW,254,0.0,1.0,65,0.00,,,0.00,weatherlink.com 1.10,2013-06-20 16:27:00,
2013-06-20 12:42:00,73.9,60.0,30.25,WSW,242,0.0,1.0,63,0.00,,,0.00,weatherlink.com 1.10,2013-06-20 16:42:00,
2013-06-20 12:57:00,74.8,60.0,30.24,West,277,0.0,4.0,60,0.00,,,0.00,weatherlink.com 1.10,2013-06-20 16:57:00,
2013-06-20 13:12:00,77.1,61.0,30.24,WNW,290,5.0,6.0,57,0.00,,,0.00,weatherlink.com 1.10,2013-06-20 17:12:00,
2013-06-20 13:27:00,77.5,61.0,30.24,ESE,111,0.0,6.0,57,0.00,,,0.00,weatherlink.com 1.10,2013-06-20 17:27:00,
2013-06-20 13:42:00,77.8,61.0,30.23,SSW,196,0.0,8.0,56,0.00,,,0.00,weatherlink.com 1.10,2013-06-20 17:42:00,
2013-06-20 13:58:00,78.0,60.0,30.23,WNW,293,0.0,5.0,55,0.00,,,0.00,weatherlink.com 1.10,2013-06-20 17:58:00,
2013-06-20 14:13:00,79.1,61.0,30.22,WSW,244,2.0,4.0,54,0.00,,,0.00,weatherlink.com 1.10,2013-06-20 18:13:00,
2013-06-20 14:28:00,78.5,60.0,30.22,West,277,0.0,5.0,54,0.00,,,0.00,weatherlink.com 1.10,2013-06-20 18:28:00,
2013-06-20 14:43:00,78.7,61.0,30.22,West,267,0.0,6.0,54,0.00,,,0.00,weatherlink.com 1.10,2013-06-20 18:43:00,
2013-06-20 14:58:00,79.1,60.0,30.22,SSW,213,0.0,6.0,53,0.00,,,0.00,weatherlink.com 1.10,2013-06-20 18:58:00,
2013-06-20 15:13:00,79.5,60.0,30.21,West,273,0.0,7.0,51,0.00,,,0.00,weatherlink.com 1.10,2013-06-20 19:13:00,
2013-06-20 15:29:00,78.9,62.0,30.22,West,268,0.0,8.0,56,0.00,,,0.00,weatherlink.com 1.10,2013-06-20 19:29:00,
2013-06-20 15:44:00,78.8,60.0,30.22,SW,231,0.0,7.0,52,0.00,,,0.00,weatherlink.com 1.10,2013-06-20 19:44:00,
2013-06-20 15:59:00,79.5,60.0,30.21,East,101,0.0,5.0,51,0.00,,,0.00,weatherlink.com 1.10,2013-06-20 19:59:00,
2013-06-20 16:14:00,79.9,59.0,30.21,South,186,0.0,7.0,49,0.00,,,0.00,weatherlink.com 1.10,2013-06-20 20:14:00,
2013-06-20 16:29:00,79.6,60.0,30.21,WSW,250,1.0,5.0,51,0.00,,,0.00,weatherlink.com 1.10,2013-06-20 20:29:00,
2013-06-20 16:44:00,78.8,60.0,30.21,SE,130,0.0,8.0,52,0.00,,,0.00,weatherlink.com 1.10,2013-06-20 20:44:00,
2013-06-20 16:59:00,79.0,60.0,30.21,West,281,0.0,8.0,53,0.00,,,0.00,weatherlink.com 1.10,2013-06-20 20:59:00,
2013-06-20 17:14:00,78.4,60.0,30.21,East,84,0.0,2.0,53,0.00,,,0.00,weatherlink.com 1.10,2013-06-20 21:14:00,
2013-06-20 17:30:00,78.5,60.0,30.21,West,272,0.0,7.0,53,0.00,,,0.00,weatherlink.com 1.10,2013-06-20 21:30:00,
2013-06-20 17:45:00,78.8,60.0,30.21,South,171,0.0,4.0,53,0.00,,,0.00,weatherlink.com 1.10,2013-06-20 21:45:00,
2013-06-20 18:00:00,79.0,60.0,30.21,SW,236,0.0,5.0,52,0.00,,,0.00,weatherlink.com 1.10,2013-06-20 22:00:00,
2013-06-20 18:15:00,78.9,61.0,30.21,SSW,211,0.0,5.0,54,0.00,,,0.00,weatherlink.com 1.10,2013-06-20 22:15:00,
2013-06-20 18:30:00,78.8,61.0,30.21,SSE,167,0.0,5.0,54,0.00,,,0.00,weatherlink.com 1.10,2013-06-20 22:30:00,
2013-06-20 18:45:00,78.3,61.0,30.21,South,171,0.0,3.0,56,0.00,,,0.00,weatherlink.com 1.10,2013-06-20 22:45:00,
2013-06-20 19:00:00,77.8,61.0,30.20,WSW,244,0.0,2.0,57,0.00,,,0.00,weatherlink.com 1.10,2013-06-20 23:00:00,
2013-06-20 19:15:00,77.3,61.0,30.21,WSW,239,0.0,1.0,58,0.00,,,0.00,weatherlink.com 1.10,2013-06-20 23:15:00,
2013-06-20 19:31:00,76.9,61.0,30.21,SE,129,0.0,3.0,58,0.00,,,0.00,weatherlink.com 1.10,2013-06-20 23:31:00,
2013-06-20 19:46:00,76.6,61.0,30.21,SE,129,0.0,0.0,59,0.00,,,0.00,weatherlink.com 1.10,2013-06-20 23:46:00,
2013-06-20 20:01:00,75.9,61.0,30.21,SE,129,0.0,1.0,61,0.00,,,0.00,weatherlink.com 1.10,2013-06-21 00:01:00,
2013-06-20 20:16:00,74.8,61.0,30.21,SE,129,0.0,0.0,63,0.00,,,0.00,weatherlink.com 1.10,2013-06-21 00:16:00,
2013-06-20 20:31:00,73.3,61.0,30.21,SE,129,0.0,0.0,66,0.00,,,0.00,weatherlink.com 1.10,2013-06-21 00:31:00,
2013-06-20 20:47:00,71.3,61.0,30.21,SE,129,0.0,0.0,69,0.00,,,0.00,weatherlink.com 1.10,2013-06-21 00:47:00,
2013-06-20 21:02:00,69.8,60.0,30.21,SE,129,0.0,0.0,72,0.00,,,0.00,weatherlink.com 1.10,2013-06-21 01:02:00,
2013-06-20 21:16:00,68.1,60.0,30.21,SE,129,0.0,0.0,76,0.00,,,0.00,weatherlink.com 1.10,2013-06-21 01:16:00,
2013-06-20 21:33:00,66.6,60.0,30.22,SE,129,0.0,0.0,79,0.00,,,0.00,weatherlink.com 1.10,2013-06-21 01:33:00,
2013-06-20 21:47:00,65.2,59.0,30.23,SE,129,0.0,0.0,81,0.00,,,0.00,weatherlink.com 1.10,2013-06-21 01:47:00,
2013-06-20 22:02:00,63.9,59.0,30.23,SE,129,0.0,0.0,84,0.00,,,0.00,weatherlink.com 1.10,2013-06-21 02:02:00,
2013-06-20 22:18:00,62.8,59.0,30.23,SE,129,0.0,0.0,86,0.00,,,0.00,weatherlink.com 1.10,2013-06-21 02:18:00,
2013-06-20 22:33:00,62.0,58.0,30.23,SE,129,0.0,0.0,87,0.00,,,0.00,weatherlink.com 1.10,2013-06-21 02:33:00,
2013-06-20 22:48:00,61.2,58.0,30.23,SE,129,0.0,0.0,88,0.00,,,0.00,weatherlink.com 1.10,2013-06-21 02:48:00,
2013-06-20 23:03:00,60.5,58.0,30.23,SE,129,0.0,0.0,90,0.00,,,0.00,weatherlink.com 1.10,2013-06-21 03:03:00,
2013-06-20 23:19:00,60.0,57.0,30.23,SE,129,0.0,0.0,91,0.00,,,0.00,weatherlink.com 1.10,2013-06-21 03:19:00,
2013-06-20 23:34:00,59.5,57.0,30.24,SE,129,0.0,0.0,91,0.00,,,0.00,weatherlink.com 1.10,2013-06-21 03:34:00,
2013-06-20 23:49:00,59.1,57.0,30.25,SE,129,0.0,0.0,92,0.00,,,0.00,weatherlink.com 1.10,2013-06-21 03:49:00,